createdAt,value
2019-02-11T00:01:53.445Z,6.20
2019-02-11T00:04:25.479Z,6.21
2019-02-11T00:06:57.275Z,6.24
2019-02-11T00:09:29.174Z,6.08
2019-02-11T00:12:01.010Z,6.02
2019-02-11T00:14:34.953Z,6.01
2019-02-11T00:17:12.206Z,6.00
2019-02-11T00:19:49.280Z,5.97
2019-02-11T00:22:21.148Z,5.93
2019-02-11T00:24:52.969Z,6.00
2019-02-11T00:27:24.772Z,5.91
2019-02-11T00:29:56.600Z,5.87
2019-02-11T00:32:28.392Z,5.85
2019-02-11T00:35:00.260Z,5.82
2019-02-11T00:37:32.097Z,5.80
2019-02-11T00:40:04.404Z,5.81
2019-02-11T00:42:36.231Z,5.77
2019-02-11T00:45:08.616Z,5.81
2019-02-11T00:47:40.438Z,5.82
2019-02-11T00:50:12.372Z,5.83
2019-02-11T00:52:44.212Z,5.92
2019-02-11T00:55:16.101Z,5.76
2019-02-11T00:57:47.941Z,5.54
2019-02-11T01:00:22.542Z,5.48
2019-02-11T01:02:54.377Z,5.37
2019-02-11T01:05:26.357Z,5.48
2019-02-11T01:07:58.317Z,5.56
2019-02-11T01:10:30.230Z,5.59
2019-02-11T01:13:03.167Z,5.49
2019-02-11T01:15:35.084Z,5.44
2019-02-11T01:18:06.947Z,5.39
2019-02-11T01:20:38.782Z,5.31
2019-02-11T01:23:10.664Z,5.22
2019-02-11T01:25:43.781Z,5.23
2019-02-11T01:28:15.784Z,5.16
2019-02-11T01:30:47.576Z,5.14
2019-02-11T01:33:19.480Z,5.14
2019-02-11T01:35:51.317Z,5.21
2019-02-11T01:38:23.181Z,5.16
2019-02-11T01:40:55.011Z,5.13
2019-02-11T01:43:26.874Z,5.23
2019-02-11T01:45:58.715Z,5.18
2019-02-11T01:48:31.117Z,5.25
2019-02-11T01:51:02.966Z,5.35
2019-02-11T01:53:34.861Z,5.29
2019-02-11T01:56:07.099Z,5.23
2019-02-11T01:58:41.734Z,5.16
2019-02-11T02:01:13.591Z,5.15
2019-02-11T02:03:45.745Z,4.95
2019-02-11T02:06:17.596Z,4.81
2019-02-11T02:08:49.406Z,4.84
2019-02-11T02:11:22.863Z,4.78
2019-02-11T02:13:54.702Z,4.80
2019-02-11T02:16:26.893Z,4.85
2019-02-11T02:18:58.719Z,4.93
2019-02-11T02:21:31.570Z,5.03
2019-02-11T02:24:03.411Z,5.20
2019-02-11T02:26:35.641Z,5.08
2019-02-11T02:29:09.772Z,5.03
2019-02-11T02:31:41.547Z,5.03
2019-02-11T02:34:13.430Z,4.83
2019-02-11T02:36:45.262Z,4.78
2019-02-11T02:39:17.134Z,4.45
2019-02-11T02:41:48.921Z,4.41
2019-02-11T02:44:20.783Z,4.53
2019-02-11T02:46:52.889Z,4.62
2019-02-11T02:49:24.734Z,4.56
2019-02-11T02:51:56.564Z,4.57
2019-02-11T02:54:28.823Z,4.54
2019-02-11T02:57:04.491Z,4.67
2019-02-11T02:59:36.327Z,4.57
2019-02-11T03:02:08.172Z,4.45
2019-02-11T03:04:39.986Z,4.24
2019-02-11T03:07:11.871Z,4.38
2019-02-11T03:09:44.882Z,4.45
2019-02-11T03:12:16.661Z,4.45
2019-02-11T03:14:48.496Z,4.50
2019-02-11T03:17:20.391Z,4.58
2019-02-11T03:19:52.220Z,4.57
2019-02-11T03:22:24.024Z,4.31
2019-02-11T03:24:55.856Z,4.18
2019-02-11T03:27:27.627Z,4.18
2019-02-11T03:29:59.455Z,4.20
2019-02-11T03:32:31.251Z,4.19
2019-02-11T03:35:04.270Z,4.12
2019-02-11T03:37:36.122Z,4.11
2019-02-11T03:40:08.233Z,4.03
2019-02-11T03:42:40.090Z,3.92
2019-02-11T03:45:12.280Z,3.96
2019-02-11T03:47:45.259Z,3.98
2019-02-11T03:50:17.176Z,4.10
2019-02-11T03:52:49.065Z,4.14
2019-02-11T03:55:20.972Z,4.03
2019-02-11T03:57:53.113Z,4.07
2019-02-11T04:00:24.935Z,3.98
2019-02-11T04:02:56.879Z,3.96
2019-02-11T04:05:28.809Z,3.93
2019-02-11T04:08:00.650Z,3.90
2019-02-11T04:10:32.627Z,3.88
2019-02-11T04:13:04.449Z,3.80
2019-02-11T04:15:38.022Z,3.84
2019-02-11T04:18:09.879Z,3.77
2019-02-11T04:20:41.815Z,3.73
2019-02-11T04:23:13.599Z,3.66
2019-02-11T04:25:46.614Z,3.76
2019-02-11T04:28:18.477Z,3.66
2019-02-11T04:30:50.312Z,3.62
2019-02-11T04:33:22.176Z,3.56
2019-02-11T04:35:54.089Z,3.54
2019-02-11T04:38:25.899Z,3.50
2019-02-11T04:40:57.738Z,3.60
2019-02-11T04:43:32.927Z,3.64
2019-02-11T04:46:05.118Z,3.59
2019-02-11T04:48:37.324Z,3.57
2019-02-11T04:51:09.150Z,3.62
2019-02-11T04:53:40.998Z,3.70
2019-02-11T04:56:12.822Z,3.70
2019-02-11T04:58:44.610Z,3.78
2019-02-11T05:01:16.479Z,3.83
2019-02-11T05:03:48.697Z,3.74
2019-02-11T05:06:20.635Z,3.62
2019-02-11T05:08:52.432Z,3.60
2019-02-11T05:11:25.245Z,3.51
2019-02-11T05:13:57.044Z,3.59
2019-02-11T05:16:28.861Z,3.44
2019-02-11T05:19:00.677Z,3.45
2019-02-11T05:21:36.113Z,3.42
2019-02-11T05:24:08.284Z,3.30
2019-02-11T05:26:40.086Z,3.16
2019-02-11T05:29:11.915Z,3.09
2019-02-11T05:31:43.745Z,3.10
2019-02-11T05:34:15.613Z,3.09
2019-02-11T05:36:47.435Z,3.02
2019-02-11T05:39:19.394Z,3.05
2019-02-11T05:41:51.232Z,3.08
2019-02-11T05:44:23.109Z,3.06
2019-02-11T05:46:55.825Z,3.09
2019-02-11T05:49:27.767Z,3.21
2019-02-11T05:51:59.583Z,3.24
2019-02-11T05:54:31.581Z,3.27
2019-02-11T05:57:04.242Z,3.28
2019-02-11T05:59:36.082Z,3.27
2019-02-11T06:02:08.038Z,3.27
2019-02-11T06:04:41.082Z,3.33
2019-02-11T06:07:13.305Z,3.40
2019-02-11T06:09:45.111Z,3.38
2019-02-11T06:12:16.942Z,3.42
2019-02-11T06:14:48.775Z,3.19
2019-02-11T06:17:20.548Z,2.95
2019-02-11T06:19:52.357Z,2.99
2019-02-11T06:22:24.270Z,2.96
2019-02-11T06:24:56.106Z,3.02
2019-02-11T06:27:29.673Z,2.94
2019-02-11T06:30:02.655Z,3.02
2019-02-11T06:32:34.464Z,2.80
2019-02-11T06:35:07.343Z,2.98
2019-02-11T06:37:39.559Z,2.94
2019-02-11T06:40:11.409Z,2.96
2019-02-11T06:42:43.220Z,2.95
2019-02-11T06:45:17.460Z,2.83
2019-02-11T06:47:50.030Z,2.69
2019-02-11T06:50:21.848Z,2.67
2019-02-11T06:52:53.699Z,2.74
2019-02-11T06:55:25.554Z,2.71
2019-02-11T06:57:57.437Z,2.69
2019-02-11T07:00:29.232Z,2.67
2019-02-11T07:03:02.965Z,2.61
2019-02-11T07:05:34.839Z,2.70
2019-02-11T07:08:07.984Z,2.69
2019-02-11T07:10:39.964Z,2.72
2019-02-11T07:13:11.827Z,2.76
2019-02-11T07:15:43.712Z,2.87
2019-02-11T07:18:15.580Z,2.84
2019-02-11T07:20:47.947Z,2.79
2019-02-11T07:23:19.915Z,2.73
2019-02-11T07:25:51.827Z,2.76
2019-02-11T07:28:23.689Z,2.68
2019-02-11T07:30:55.640Z,2.58
2019-02-11T07:33:27.576Z,2.52
2019-02-11T07:35:59.414Z,2.41
2019-02-11T07:38:31.442Z,2.42
2019-02-11T07:41:05.981Z,2.48
2019-02-11T07:43:59.881Z,2.54
2019-02-11T07:47:16.639Z,2.63
2019-02-11T07:49:48.496Z,2.63
2019-02-11T07:52:26.668Z,2.68
2019-02-11T07:54:53.835Z,2.74
2019-02-11T07:57:25.664Z,2.77
2019-02-11T07:59:58.068Z,2.68
2019-02-11T08:02:29.995Z,2.74
2019-02-11T08:05:04.585Z,2.81
2019-02-11T08:07:36.424Z,2.84
2019-02-11T08:10:08.339Z,3.00
2019-02-11T08:12:40.232Z,3.16
2019-02-11T08:15:12.466Z,3.20
2019-02-11T08:17:46.920Z,3.24
2019-02-11T08:20:18.950Z,3.27
2019-02-11T08:22:50.783Z,3.36
2019-02-11T08:25:24.906Z,3.49
2019-02-11T08:27:56.737Z,3.51
2019-02-11T08:30:47.765Z,3.53
2019-02-11T08:33:19.684Z,3.58
2019-02-11T08:35:51.518Z,3.57
2019-02-11T08:38:26.438Z,3.64
2019-02-11T08:40:58.765Z,3.76
2019-02-11T08:43:30.563Z,3.85
2019-02-11T08:46:05.561Z,4.15
2019-02-11T08:48:37.730Z,4.31
2019-02-11T08:51:09.925Z,4.24
2019-02-11T08:53:41.838Z,4.38
2019-02-11T08:56:13.620Z,4.47
2019-02-11T08:58:45.576Z,4.58
2019-02-11T09:01:17.398Z,4.84
2019-02-11T09:03:49.312Z,4.78
2019-02-11T09:06:21.589Z,5.02
2019-02-11T09:08:53.533Z,5.22
2019-02-11T09:11:27.020Z,5.39
2019-02-11T09:13:59.518Z,5.64
2019-02-11T09:16:31.416Z,5.87
2019-02-11T09:19:03.638Z,6.18
2019-02-11T09:21:35.593Z,6.36
2019-02-11T09:24:07.405Z,6.72
2019-02-11T09:26:39.317Z,7.60
2019-02-11T09:29:11.190Z,9.61
2019-02-11T09:31:43.035Z,12.39
2019-02-11T09:34:14.856Z,15.02
2019-02-11T09:36:46.698Z,17.23
2019-02-11T09:39:18.629Z,20.05
2019-02-11T09:41:51.733Z,22.16
2019-02-11T09:44:29.607Z,22.15
2019-02-11T09:46:58.746Z,24.70
2019-02-11T09:49:31.015Z,23.89
2019-02-11T09:52:02.979Z,25.41
2019-02-11T09:54:34.817Z,25.26
2019-02-11T09:57:08.228Z,26.65
2019-02-11T09:59:40.060Z,26.82
2019-02-11T10:02:11.906Z,27.01
2019-02-11T10:04:43.730Z,27.56
2019-02-11T10:07:17.915Z,28.89
2019-02-11T10:09:49.765Z,28.14
2019-02-11T10:12:21.752Z,29.38
2019-02-11T10:14:53.608Z,28.38
2019-02-11T10:17:29.875Z,28.44
2019-02-11T10:20:03.056Z,27.54
2019-02-11T10:22:35.082Z,28.45
2019-02-11T10:25:09.816Z,27.39
2019-02-11T10:27:41.619Z,28.88
2019-02-11T10:30:14.864Z,27.42
2019-02-11T10:32:46.804Z,27.42
2019-02-11T10:35:18.761Z,27.44
2019-02-11T10:37:50.591Z,27.05
2019-02-11T10:40:22.558Z,26.79
2019-02-11T10:42:54.382Z,26.60
2019-02-11T10:45:26.379Z,27.85
2019-02-11T10:47:58.667Z,28.36
2019-02-11T10:50:31.139Z,27.27
2019-02-11T10:53:02.933Z,28.62
2019-02-11T10:55:34.793Z,28.62
2019-02-11T10:58:06.596Z,26.72
2019-02-11T11:00:38.818Z,26.63
2019-02-11T11:03:10.644Z,25.84
2019-02-11T11:05:43.315Z,26.03
2019-02-11T11:08:15.256Z,26.15
2019-02-11T11:10:47.145Z,24.59
2019-02-11T11:13:18.954Z,24.45
2019-02-11T11:15:50.767Z,27.18
2019-02-11T11:18:23.309Z,26.52
2019-02-11T11:20:55.101Z,25.82
2019-02-11T11:23:28.135Z,27.53
2019-02-11T11:26:00.031Z,27.23
2019-02-11T11:28:32.213Z,27.53
2019-02-11T11:31:04.395Z,28.11
2019-02-11T11:33:36.536Z,27.04
2019-02-11T11:36:09.167Z,27.11
2019-02-11T11:38:43.781Z,27.02
2019-02-11T11:41:15.645Z,27.05
2019-02-11T11:43:47.444Z,28.34
2019-02-11T11:46:19.281Z,29.21
2019-02-11T11:48:51.160Z,27.84
2019-02-11T11:51:23.356Z,27.21
2019-02-11T11:53:55.325Z,27.63
2019-02-11T11:56:27.147Z,28.38
2019-02-11T11:58:59.809Z,28.60
2019-02-11T12:01:31.666Z,30.07
2019-02-11T12:04:06.358Z,28.99
2019-02-11T12:06:37.578Z,28.05
2019-02-11T12:09:09.630Z,28.17
2019-02-11T12:11:43.376Z,28.93
2019-02-11T12:14:15.986Z,29.17
2019-02-11T12:16:56.790Z,29.97
2019-02-11T12:19:21.323Z,28.62
2019-02-11T12:21:53.443Z,26.15
2019-02-11T12:24:25.342Z,26.76
2019-02-11T12:26:57.910Z,26.72
2019-02-11T12:29:29.737Z,26.63
2019-02-11T12:32:03.675Z,25.34
2019-02-11T12:34:36.050Z,24.82
2019-02-11T12:37:09.503Z,23.87
2019-02-11T12:39:41.521Z,25.65
2019-02-11T12:42:13.941Z,25.84
2019-02-11T12:44:45.978Z,26.13
2019-02-11T12:47:17.794Z,24.64
2019-02-11T12:49:49.580Z,24.67
2019-02-11T12:52:21.613Z,25.53
2019-02-11T12:54:53.430Z,25.20
2019-02-11T12:57:25.907Z,24.54
2019-02-11T12:59:57.739Z,25.32
2019-02-11T13:02:29.580Z,25.81
2019-02-11T13:05:01.522Z,25.49
2019-02-11T13:07:33.355Z,25.41
2019-02-11T13:10:07.502Z,26.16
2019-02-11T13:12:39.608Z,25.31
2019-02-11T13:15:11.795Z,24.32
2019-02-11T13:17:43.882Z,21.82
2019-02-11T13:20:15.742Z,20.08
2019-02-11T13:22:47.976Z,19.32
2019-02-11T13:25:19.861Z,19.03
2019-02-11T13:27:51.679Z,18.52
2019-02-11T13:30:28.735Z,17.98
2019-02-11T13:33:00.627Z,17.83
2019-02-11T13:35:34.317Z,17.64
2019-02-11T13:38:06.106Z,17.47
2019-02-11T13:40:37.946Z,16.92
2019-02-11T13:43:09.986Z,16.79
2019-02-11T13:45:41.809Z,16.65
2019-02-11T13:48:14.779Z,16.52
2019-02-11T13:50:46.769Z,16.63
2019-02-11T13:53:18.889Z,16.70
2019-02-11T13:55:51.541Z,16.98
2019-02-11T13:58:23.395Z,17.16
2019-02-11T14:00:56.163Z,17.01
2019-02-11T14:03:28.261Z,16.84
2019-02-11T14:06:00.180Z,16.70
2019-02-11T14:08:32.361Z,16.53
2019-02-11T14:11:04.552Z,16.21
2019-02-11T14:13:36.399Z,16.27
2019-02-11T14:16:08.329Z,16.42
2019-02-11T14:18:40.179Z,16.26
2019-02-11T14:21:11.964Z,16.19
2019-02-11T14:23:43.809Z,16.20
2019-02-11T14:26:15.894Z,16.36
2019-02-11T14:28:49.573Z,16.17
2019-02-11T14:31:22.047Z,16.35
2019-02-11T14:33:54.685Z,16.63
2019-02-11T14:36:26.724Z,16.79
2019-02-11T14:38:58.678Z,17.15
2019-02-11T14:41:31.394Z,16.86
2019-02-11T14:44:03.281Z,16.80
2019-02-11T14:46:35.455Z,16.71
2019-02-11T14:49:08.828Z,16.65
2019-02-11T14:51:40.783Z,17.02
2019-02-11T14:54:14.167Z,16.66
2019-02-11T14:56:47.978Z,16.31
2019-02-11T14:59:19.800Z,16.63
2019-02-11T15:01:51.644Z,16.52
2019-02-11T15:04:23.507Z,16.37
2019-02-11T15:06:55.291Z,16.38
2019-02-11T15:09:30.308Z,16.43
2019-02-11T15:12:04.947Z,16.49
2019-02-11T15:14:36.785Z,16.46
2019-02-11T15:17:08.749Z,16.27
2019-02-11T15:19:41.238Z,16.08
2019-02-11T15:22:13.150Z,16.33
2019-02-11T15:24:45.000Z,16.43
2019-02-11T15:27:17.486Z,16.56
2019-02-11T15:29:49.504Z,16.76
2019-02-11T15:32:21.509Z,16.79
2019-02-11T15:34:54.030Z,16.75
2019-02-11T15:37:25.944Z,16.50
2019-02-11T15:39:57.765Z,16.45
2019-02-11T15:42:29.573Z,16.41
2019-02-11T15:45:01.472Z,16.64
2019-02-11T15:47:36.153Z,16.49
2019-02-11T15:50:09.680Z,16.47
2019-02-11T15:52:41.766Z,16.36
2019-02-11T15:55:16.758Z,16.37
2019-02-11T15:57:51.531Z,16.24
2019-02-11T16:00:23.805Z,16.11
2019-02-11T16:02:55.658Z,16.40
2019-02-11T16:05:27.515Z,16.46
2019-02-11T16:08:00.857Z,16.23
2019-02-11T16:10:32.930Z,16.14
2019-02-11T16:13:04.743Z,16.06
2019-02-11T16:15:37.266Z,16.10
2019-02-11T16:18:09.237Z,15.73
2019-02-11T16:20:41.034Z,16.04
2019-02-11T16:23:12.852Z,15.90
2019-02-11T16:25:44.637Z,16.15
2019-02-11T16:28:17.162Z,16.17
2019-02-11T16:30:49.129Z,16.12
2019-02-11T16:33:20.948Z,16.22
2019-02-11T16:35:53.220Z,16.17
2019-02-11T16:38:26.356Z,16.28
2019-02-11T16:40:58.243Z,16.49
2019-02-11T16:43:30.063Z,16.28
2019-02-11T16:46:01.968Z,16.48
2019-02-11T16:48:34.264Z,16.09
2019-02-11T16:51:06.053Z,16.01
2019-02-11T16:53:39.610Z,16.24
2019-02-11T16:56:11.464Z,16.14
2019-02-11T16:58:43.419Z,16.17
2019-02-11T17:01:15.292Z,16.29
2019-02-11T17:03:47.166Z,16.27
2019-02-11T17:06:19.034Z,16.13
2019-02-11T17:08:51.139Z,16.18
2019-02-11T17:11:23.399Z,16.25
2019-02-11T17:13:55.229Z,16.45
2019-02-11T17:16:29.733Z,16.54
2019-02-11T17:19:09.187Z,16.27
2019-02-11T17:21:37.500Z,16.00
2019-02-11T17:24:09.343Z,15.82
2019-02-11T17:26:41.548Z,15.69
2019-02-11T17:29:13.349Z,15.43
2019-02-11T17:31:45.209Z,15.43
2019-02-11T17:34:17.016Z,15.27
2019-02-11T17:36:49.947Z,15.09
2019-02-11T17:39:21.779Z,14.95
2019-02-11T17:41:53.629Z,14.81
2019-02-11T17:44:25.897Z,14.84
2019-02-11T17:46:57.804Z,14.74
2019-02-11T17:49:29.609Z,14.54
2019-02-11T17:52:03.772Z,14.37
2019-02-11T17:54:36.262Z,14.13
2019-02-11T17:57:09.158Z,13.96
2019-02-11T17:59:41.770Z,13.77
2019-02-11T18:02:15.432Z,13.61
2019-02-11T18:04:52.592Z,13.49
2019-02-11T18:07:26.989Z,13.31
2019-02-11T18:10:00.266Z,13.17
2019-02-11T18:12:34.407Z,13.03
2019-02-11T18:15:12.106Z,12.87
2019-02-11T18:17:45.742Z,12.74
2019-02-11T18:20:19.248Z,12.56
2019-02-11T18:22:51.243Z,12.49
2019-02-11T18:25:23.885Z,12.37
2019-02-11T18:27:55.895Z,12.21
2019-02-11T18:30:27.784Z,12.12
2019-02-11T18:32:59.660Z,12.03
2019-02-11T18:35:31.455Z,12.02
2019-02-11T18:38:03.573Z,11.94
2019-02-11T18:40:35.781Z,11.77
2019-02-11T18:43:07.753Z,11.72
2019-02-11T18:45:40.001Z,11.67
2019-02-11T18:48:14.151Z,11.55
2019-02-11T18:50:47.901Z,11.48
2019-02-11T18:53:23.957Z,11.36
2019-02-11T18:55:55.819Z,11.28
2019-02-11T18:58:28.038Z,11.21
2019-02-11T19:01:00.313Z,11.16
2019-02-11T19:03:32.114Z,11.11
2019-02-11T19:06:05.078Z,11.04
2019-02-11T19:08:39.361Z,10.96
2019-02-11T19:11:11.203Z,10.84
2019-02-11T19:13:43.088Z,10.70
2019-02-11T19:16:14.950Z,10.57
2019-02-11T19:18:46.775Z,10.51
2019-02-11T19:21:19.714Z,10.37
2019-02-11T19:23:51.629Z,10.37
2019-02-11T19:26:23.507Z,10.30
2019-02-11T19:28:55.365Z,10.26
2019-02-11T19:31:27.679Z,10.15
2019-02-11T19:34:00.150Z,10.17
2019-02-11T19:36:34.663Z,10.06
2019-02-11T19:39:06.958Z,9.94
2019-02-11T19:41:38.859Z,9.83
2019-02-11T19:44:10.745Z,9.79
2019-02-11T19:46:42.772Z,9.81
2019-02-11T19:49:14.729Z,9.80
2019-02-11T19:51:46.600Z,9.84
2019-02-11T19:54:18.488Z,9.80
2019-02-11T19:56:50.759Z,9.72
2019-02-11T19:59:22.704Z,9.70
2019-02-11T20:01:54.567Z,9.54
2019-02-11T20:04:26.449Z,9.46
2019-02-11T20:06:58.722Z,9.37
2019-02-11T20:09:32.893Z,9.42
2019-02-11T20:12:04.145Z,9.42
2019-02-11T20:14:35.987Z,9.38
2019-02-11T20:17:07.766Z,9.22
2019-02-11T20:19:39.971Z,9.15
2019-02-11T20:22:11.773Z,9.15
2019-02-11T20:24:43.734Z,9.14
2019-02-11T20:27:15.553Z,9.16
2019-02-11T20:29:48.484Z,9.12
2019-02-11T20:32:20.903Z,8.96
2019-02-11T20:34:52.842Z,8.93
2019-02-11T20:37:24.626Z,8.90
2019-02-11T20:40:03.193Z,8.78
2019-02-11T20:42:30.916Z,8.68
2019-02-11T20:45:02.782Z,8.63
2019-02-11T20:47:35.726Z,8.56
2019-02-11T20:50:09.788Z,8.46
2019-02-11T20:52:42.509Z,8.35
2019-02-11T20:55:14.479Z,8.33
2019-02-11T20:57:47.517Z,8.29
2019-02-11T21:00:20.966Z,8.32
2019-02-11T21:02:56.461Z,8.30
2019-02-11T21:05:28.724Z,8.22
2019-02-11T21:08:00.739Z,8.20
2019-02-11T21:10:34.767Z,8.13
2019-02-11T21:13:06.678Z,8.04
2019-02-11T21:15:38.585Z,7.97
2019-02-11T21:18:10.804Z,7.93
2019-02-11T21:20:43.585Z,7.84
2019-02-11T21:23:15.487Z,7.75
2019-02-11T21:25:47.762Z,7.78
2019-02-11T21:28:19.981Z,7.66
2019-02-11T21:30:51.830Z,7.60
2019-02-11T21:33:23.779Z,7.60
2019-02-11T21:35:55.743Z,7.62
2019-02-11T21:38:27.579Z,7.54
2019-02-11T21:40:59.473Z,7.57
2019-02-11T21:43:31.364Z,7.56
2019-02-11T21:46:05.705Z,7.56
2019-02-11T21:48:37.584Z,7.54
2019-02-11T21:51:09.583Z,7.56
2019-02-11T21:53:41.435Z,7.55
2019-02-11T21:56:13.295Z,7.50
2019-02-11T21:58:45.300Z,7.44
2019-02-11T22:01:17.543Z,7.47
2019-02-11T22:03:49.399Z,7.50
2019-02-11T22:06:21.991Z,7.31
2019-02-11T22:08:53.921Z,7.28
2019-02-11T22:11:26.732Z,7.08
2019-02-11T22:13:58.946Z,6.99
2019-02-11T22:16:30.845Z,6.98
2019-02-11T22:19:02.718Z,6.84
2019-02-11T22:21:34.921Z,6.76
2019-02-11T22:24:06.694Z,6.67
2019-02-11T22:26:40.036Z,6.66
2019-02-11T22:29:11.840Z,6.65
2019-02-11T22:31:43.715Z,6.64
2019-02-11T22:34:15.507Z,6.68
2019-02-11T22:36:47.689Z,6.68
2019-02-11T22:39:19.581Z,6.58
2019-02-11T22:41:51.469Z,6.65
2019-02-11T22:44:23.447Z,6.60
2019-02-11T22:46:55.733Z,6.69
2019-02-11T22:49:27.581Z,6.67
2019-02-11T22:51:59.395Z,6.67
2019-02-11T22:54:31.657Z,6.64
2019-02-11T22:57:03.464Z,6.66
2019-02-11T22:59:35.431Z,6.67
2019-02-11T23:02:07.636Z,6.63
2019-02-11T23:04:39.482Z,6.64
2019-02-11T23:07:11.322Z,6.59
2019-02-11T23:09:44.109Z,6.54
2019-02-11T23:12:17.803Z,6.55
2019-02-11T23:14:49.621Z,6.51
2019-02-11T23:17:21.457Z,6.45
2019-02-11T23:19:53.299Z,6.42
2019-02-11T23:22:25.134Z,6.40
2019-02-11T23:24:56.907Z,6.35
2019-02-11T23:27:29.192Z,6.28
2019-02-11T23:30:02.002Z,6.28
2019-02-11T23:32:36.325Z,6.28
2019-02-11T23:35:08.412Z,6.25
2019-02-11T23:37:40.309Z,6.15
2019-02-11T23:40:13.809Z,6.08
2019-02-11T23:42:46.231Z,5.93
2019-02-11T23:45:18.618Z,5.83
2019-02-11T23:47:50.448Z,5.87
2019-02-11T23:50:22.227Z,5.85
2019-02-11T23:52:54.136Z,5.81
2019-02-11T23:55:25.991Z,5.78
2019-02-11T23:57:57.796Z,5.74
